sensor_id;sensor_type;location;lat;lon;timestamp;pressure;altitude;pressure_sealevel;temperature;humidity
38558;BME280;24333;42.626;23.308;2023-05-23T00:02:14;70155.53;;;-148.95;100.00
38558;BME280;24333;42.626;23.308;2023-05-23T00:04:45;70151.38;;;-148.95;100.00
38558;BME280;24333;42.626;23.308;2023-05-23T00:07:12;70151.38;;;-148.95;100.00
38558;BME280;24333;42.626;23.308;2023-05-23T00:09:37;70145.16;;;-148.95;100.00
38558;BME280;24333;42.626;23.308;2023-05-23T00:12:03;70138.94;;;-148.95;100.00
38558;BME280;24333;42.626;23.308;2023-05-23T00:14:28;70136.84;;;-148.95;100.00
38558;BME280;24333;42.626;23.308;2023-05-23T00:16:58;70132.72;;;-148.95;100.00
38558;BME280;24333;42.626;23.308;2023-05-23T00:19:25;70141.00;;;-148.95;100.00
38558;BME280;24333;42.626;23.308;2023-05-23T00:21:50;70132.72;;;-148.95;100.00
38558;BME280;24333;42.626;23.308;2023-05-23T00:24:18;70136.84;;;-148.95;100.00
38558;BME280;24333;42.626;23.308;2023-05-23T00:26:45;70134.78;;;-148.95;100.00
38558;BME280;24333;42.626;23.308;2023-05-23T00:29:10;70143.09;;;-148.95;100.00
38558;BME280;24333;42.626;23.308;2023-05-23T00:31:43;70149.31;;;-148.95;100.00
38558;BME280;24333;42.626;23.308;2023-05-23T00:34:14;70145.16;;;-148.95;100.00
38558;BME280;24333;42.626;23.308;2023-05-23T00:36:39;70143.09;;;-148.95;100.00
38558;BME280;24333;42.626;23.308;2023-05-23T00:39:07;70138.94;;;-148.95;100.00
38558;BME280;24333;42.626;23.308;2023-05-23T00:52:27;70143.09;;;-148.95;100.00
38558;BME280;24333;42.626;23.308;2023-05-23T00:57:36;70147.22;;;-148.95;100.00
38558;BME280;24333;42.626;23.308;2023-05-23T01:00:14;70147.22;;;-148.95;100.00
38558;BME280;24333;42.626;23.308;2023-05-23T01:02:46;70149.31;;;-148.95;100.00
38558;BME280;24333;42.626;23.308;2023-05-23T01:05:16;70155.53;;;-148.95;100.00
38558;BME280;24333;42.626;23.308;2023-05-23T01:07:43;70151.38;;;-148.95;100.00
38558;BME280;24333;42.626;23.308;2023-05-23T01:10:10;70151.38;;;-148.95;100.00
38558;BME280;24333;42.626;23.308;2023-05-23T01:21:20;70161.75;;;-148.95;100.00
38558;BME280;24333;42.626;23.308;2023-05-23T01:23:58;70163.81;;;-148.95;100.00
38558;BME280;24333;42.626;23.308;2023-05-23T01:30:19;70147.22;;;-148.95;100.00
38558;BME280;24333;42.626;23.308;2023-05-23T01:32:47;70143.09;;;-148.95;100.00
38558;BME280;24333;42.626;23.308;2023-05-23T01:35:24;70138.94;;;-148.95;100.00
38558;BME280;24333;42.626;23.308;2023-05-23T01:37:54;70134.78;;;-148.95;100.00
38558;BME280;24333;42.626;23.308;2023-05-23T01:40:20;70122.34;;;-148.95;100.00
38558;BME280;24333;42.626;23.308;2023-05-23T01:42:47;70128.56;;;-148.95;100.00
38558;BME280;24333;42.626;23.308;2023-05-23T01:45:16;70130.63;;;-148.95;100.00
38558;BME280;24333;42.626;23.308;2023-05-23T01:47:42;70128.56;;;-148.95;100.00
38558;BME280;24333;42.626;23.308;2023-05-23T01:50:10;70126.47;;;-148.95;100.00
38558;BME280;24333;42.626;23.308;2023-05-23T01:52:37;70126.47;;;-148.95;100.00
38558;BME280;24333;42.626;23.308;2023-05-23T01:55:05;70122.34;;;-148.95;100.00
38558;BME280;24333;42.626;23.308;2023-05-23T01:57:35;70114.03;;;-148.95;100.00
38558;BME280;24333;42.626;23.308;2023-05-23T02:00:05;70116.13;;;-148.95;100.00
38558;BME280;24333;42.626;23.308;2023-05-23T02:02:33;70109.88;;;-148.95;100.00
38558;BME280;24333;42.626;23.308;2023-05-23T02:04:59;70118.19;;;-148.95;100.00
38558;BME280;24333;42.626;23.308;2023-05-23T02:07:25;70116.13;;;-148.95;100.00
38558;BME280;24333;42.626;23.308;2023-05-23T02:09:51;70124.41;;;-148.95;100.00
38558;BME280;24333;42.626;23.308;2023-05-23T02:12:16;70124.41;;;-148.95;100.00
38558;BME280;24333;42.626;23.308;2023-05-23T02:14:42;70120.25;;;-148.95;100.00
38558;BME280;24333;42.626;23.308;2023-05-23T02:17:08;70126.47;;;-148.95;100.00
38558;BME280;24333;42.626;23.308;2023-05-23T02:19:36;70132.72;;;-148.95;100.00
38558;BME280;24333;42.626;23.308;2023-05-23T02:22:04;70132.72;;;-148.95;100.00
38558;BME280;24333;42.626;23.308;2023-05-23T02:24:30;70136.84;;;-148.95;100.00
38558;BME280;24333;42.626;23.308;2023-05-23T02:26:55;70136.84;;;-148.95;100.00
38558;BME280;24333;42.626;23.308;2023-05-23T02:29:20;70141.00;;;-148.95;100.00
38558;BME280;24333;42.626;23.308;2023-05-23T02:31:46;70134.78;;;-148.95;100.00
38558;BME280;24333;42.626;23.308;2023-05-23T02:34:11;70147.22;;;-148.95;100.00
38558;BME280;24333;42.626;23.308;2023-05-23T02:36:36;70147.22;;;-148.95;100.00
38558;BME280;24333;42.626;23.308;2023-05-23T02:39:03;70147.22;;;-148.95;100.00
38558;BME280;24333;42.626;23.308;2023-05-23T02:41:28;70138.94;;;-148.95;100.00
38558;BME280;24333;42.626;23.308;2023-05-23T02:43:54;70134.78;;;-148.95;100.00
38558;BME280;24333;42.626;23.308;2023-05-23T02:46:19;70141.00;;;-148.95;100.00
38558;BME280;24333;42.626;23.308;2023-05-23T02:48:45;70136.84;;;-148.95;100.00
38558;BME280;24333;42.626;23.308;2023-05-23T02:51:10;70134.78;;;-148.95;100.00
38558;BME280;24333;42.626;23.308;2023-05-23T02:53:38;70143.09;;;-148.95;100.00
38558;BME280;24333;42.626;23.308;2023-05-23T02:56:03;70134.78;;;-148.95;100.00
38558;BME280;24333;42.626;23.308;2023-05-23T02:58:28;70138.94;;;-148.95;100.00
38558;BME280;24333;42.626;23.308;2023-05-23T03:00:54;70138.94;;;-148.95;100.00
38558;BME280;24333;42.626;23.308;2023-05-23T03:03:19;70141.00;;;-148.95;100.00
38558;BME280;24333;42.626;23.308;2023-05-23T03:05:46;70141.00;;;-148.95;100.00
38558;BME280;24333;42.626;23.308;2023-05-23T03:08:11;70141.00;;;-148.95;100.00
38558;BME280;24333;42.626;23.308;2023-05-23T03:10:36;70138.94;;;-148.95;100.00
38558;BME280;24333;42.626;23.308;2023-05-23T03:13:02;70138.94;;;-148.95;100.00
38558;BME280;24333;42.626;23.308;2023-05-23T03:15:27;70143.09;;;-148.95;100.00
38558;BME280;24333;42.626;23.308;2023-05-23T03:17:52;70147.22;;;-148.95;100.00
38558;BME280;24333;42.626;23.308;2023-05-23T03:20:18;70141.00;;;-148.95;100.00
38558;BME280;24333;42.626;23.308;2023-05-23T03:22:43;70134.78;;;-148.95;100.00
38558;BME280;24333;42.626;23.308;2023-05-23T03:25:10;70132.72;;;-148.95;100.00
38558;BME280;24333;42.626;23.308;2023-05-23T03:27:35;70124.41;;;-148.95;100.00
38558;BME280;24333;42.626;23.308;2023-05-23T03:30:04;70118.19;;;-148.95;100.00
38558;BME280;24333;42.626;23.308;2023-05-23T03:32:30;70126.47;;;-148.95;100.00
38558;BME280;24333;42.626;23.308;2023-05-23T03:34:55;70109.88;;;-148.95;100.00
38558;BME280;24333;42.626;23.308;2023-05-23T03:37:21;70114.03;;;-148.95;100.00
38558;BME280;24333;42.626;23.308;2023-05-23T03:39:46;70105.75;;;-148.95;100.00
38558;BME280;24333;42.626;23.308;2023-05-23T03:42:12;70103.66;;;-148.95;100.00
38558;BME280;24333;42.626;23.308;2023-05-23T03:44:37;70097.44;;;-148.95;100.00
38558;BME280;24333;42.626;23.308;2023-05-23T03:47:02;70087.06;;;-148.95;100.00
38558;BME280;24333;42.626;23.308;2023-05-23T03:49:28;70078.78;;;-148.95;100.00
38558;BME280;24333;42.626;23.308;2023-05-23T03:51:53;70070.47;;;-148.95;100.00
38558;BME280;24333;42.626;23.308;2023-05-23T03:54:19;70058.03;;;-148.95;100.00
38558;BME280;24333;42.626;23.308;2023-05-23T03:56:44;70049.72;;;-148.95;100.00
38558;BME280;24333;42.626;23.308;2023-05-23T03:59:10;70039.34;;;-148.95;100.00
38558;BME280;24333;42.626;23.308;2023-05-23T04:01:35;70022.75;;;-148.95;100.00
38558;BME280;24333;42.626;23.308;2023-05-23T04:04:00;70014.47;;;-148.95;100.00
38558;BME280;24333;42.626;23.308;2023-05-23T04:06:26;70010.31;;;-148.95;100.00
38558;BME280;24333;42.626;23.308;2023-05-23T04:08:54;70004.09;;;-148.95;100.00
38558;BME280;24333;42.626;23.308;2023-05-23T04:11:19;70006.16;;;-148.95;100.00
38558;BME280;24333;42.626;23.308;2023-05-23T04:13:46;70004.09;;;-148.95;100.00
38558;BME280;24333;42.626;23.308;2023-05-23T04:16:12;69989.56;;;-148.95;100.00
38558;BME280;24333;42.626;23.308;2023-05-23T04:18:37;69977.13;;;-148.95;100.00
38558;BME280;24333;42.626;23.308;2023-05-23T04:21:03;69958.44;;;-148.95;100.00
38558;BME280;24333;42.626;23.308;2023-05-23T04:23:29;69950.16;;;-148.95;100.00
38558;BME280;24333;42.626;23.308;2023-05-23T04:25:54;69939.78;;;-148.95;100.00
38558;BME280;24333;42.626;23.308;2023-05-23T04:28:21;69929.41;;;-148.95;100.00
38558;BME280;24333;42.626;23.308;2023-05-23T04:30:47;69916.97;;;-148.95;100.00
38558;BME280;24333;42.626;23.308;2023-05-23T04:33:13;69914.88;;;-148.95;100.00
38558;BME280;24333;42.626;23.308;2023-05-23T04:35:39;69908.66;;;-148.95;100.00
38558;BME280;24333;42.626;23.308;2023-05-23T04:38:05;69902.44;;;-148.95;100.00
38558;BME280;24333;42.626;23.308;2023-05-23T04:40:30;69904.50;;;-148.95;100.00
38558;BME280;24333;42.626;23.308;2023-05-23T04:42:56;69910.72;;;-148.95;100.00
38558;BME280;24333;42.626;23.308;2023-05-23T05:40:19;69865.09;;;-148.95;100.00
38558;BME280;24333;42.626;23.308;2023-05-23T05:42:45;69869.25;;;-148.95;100.00
38558;BME280;24333;42.626;23.308;2023-05-23T05:45:12;69860.94;;;-148.95;100.00
38558;BME280;24333;42.626;23.308;2023-05-23T05:47:38;69852.66;;;-148.95;100.00
38558;BME280;24333;42.626;23.308;2023-05-23T05:50:05;69865.09;;;-148.95;100.00
38558;BME280;24333;42.626;23.308;2023-05-23T05:52:31;69869.25;;;-148.95;100.00
38558;BME280;24333;42.626;23.308;2023-05-23T06:07:54;69794.56;;;-148.95;100.00
38558;BME280;24333;42.626;23.308;2023-05-23T06:10:19;69792.50;;;-148.95;100.00
38558;BME280;24333;42.626;23.308;2023-05-23T06:12:45;69782.13;;;-148.95;100.00
38558;BME280;24333;42.626;23.308;2023-05-23T06:15:11;69775.91;;;-148.95;100.00
38558;BME280;24333;42.626;23.308;2023-05-23T06:17:38;69765.53;;;-148.95;100.00
38558;BME280;24333;42.626;23.308;2023-05-23T06:20:04;69771.75;;;-148.95;100.00
38558;BME280;24333;42.626;23.308;2023-05-23T06:58:42;69668.03;;;-148.95;100.00
38558;BME280;24333;42.626;23.308;2023-05-23T07:01:07;69643.13;;;-148.95;100.00
38558;BME280;24333;42.626;23.308;2023-05-23T07:03:34;69614.09;;;-148.95;100.00
38558;BME280;24333;42.626;23.308;2023-05-23T07:06:02;69593.34;;;-148.95;100.00
38558;BME280;24333;42.626;23.308;2023-05-23T07:08:28;69570.53;;;-148.95;100.00
38558;BME280;24333;42.626;23.308;2023-05-23T07:10:53;69541.50;;;-148.95;100.00
38558;BME280;24333;42.626;23.308;2023-05-23T07:13:19;69529.06;;;-148.95;100.00
38558;BME280;24333;42.626;23.308;2023-05-23T07:15:44;69520.75;;;-148.95;100.00
38558;BME280;24333;42.626;23.308;2023-05-23T07:18:09;69506.25;;;-148.95;100.00
38558;BME280;24333;42.626;23.308;2023-05-23T07:20:35;69502.09;;;-148.95;100.00
38558;BME280;24333;42.626;23.308;2023-05-23T07:23:01;69485.50;;;-148.95;100.00
38558;BME280;24333;42.626;23.308;2023-05-23T07:25:26;69493.78;;;-148.95;100.00
38558;BME280;24333;42.626;23.308;2023-05-23T07:27:52;69495.88;;;-148.95;100.00
38558;BME280;24333;42.626;23.308;2023-05-23T07:30:19;69487.56;;;-148.95;100.00
38558;BME280;24333;42.626;23.308;2023-05-23T07:32:46;69491.72;;;-148.95;100.00
38558;BME280;24333;42.626;23.308;2023-05-23T07:35:12;69502.09;;;-148.95;100.00
38558;BME280;24333;42.626;23.308;2023-05-23T07:37:40;69483.41;;;-148.95;100.00
38558;BME280;24333;42.626;23.308;2023-05-23T07:40:06;69489.66;;;-148.95;100.00
38558;BME280;24333;42.626;23.308;2023-05-23T07:42:33;69475.13;;;-148.95;100.00
38558;BME280;24333;42.626;23.308;2023-05-23T07:44:59;69458.53;;;-148.95;100.00
38558;BME280;24333;42.626;23.308;2023-05-23T07:47:25;69444.00;;;-148.95;100.00
38558;BME280;24333;42.626;23.308;2023-05-23T07:49:51;69437.78;;;-148.95;100.00
38558;BME280;24333;42.626;23.308;2023-05-23T07:52:17;69433.63;;;-148.95;100.00
38558;BME280;24333;42.626;23.308;2023-05-23T07:54:48;69425.34;;;-148.95;100.00
38558;BME280;24333;42.626;23.308;2023-05-23T07:57:14;69417.03;;;-148.95;100.00
38558;BME280;24333;42.626;23.308;2023-05-23T07:59:42;69402.53;;;-148.95;100.00
38558;BME280;24333;42.626;23.308;2023-05-23T08:02:07;69412.91;;;-148.95;100.00
38558;BME280;24333;42.626;23.308;2023-05-23T08:04:34;69379.72;;;-148.95;100.00
38558;BME280;24333;42.626;23.308;2023-05-23T08:06:59;69371.41;;;-148.95;100.00
38558;BME280;24333;42.626;23.308;2023-05-23T08:09:25;69379.72;;;-148.95;100.00
38558;BME280;24333;42.626;23.308;2023-05-23T08:11:51;69373.50;;;-148.95;95.77
38558;BME280;24333;42.626;23.308;2023-05-23T08:14:16;69358.97;;;-148.95;96.08
38558;BME280;24333;42.626;23.308;2023-05-23T08:16:42;69361.03;;;-148.95;95.00
38558;BME280;24333;42.626;23.308;2023-05-23T08:19:07;69358.97;;;-148.95;89.11
38558;BME280;24333;42.626;23.308;2023-05-23T08:21:34;69350.69;;;-148.95;86.90
38558;BME280;24333;42.626;23.308;2023-05-23T08:24:00;69338.22;;;-148.95;86.82
38558;BME280;24333;42.626;23.308;2023-05-23T08:26:26;69321.63;;;-148.95;87.10
38558;BME280;24333;42.626;23.308;2023-05-23T08:28:54;69336.16;;;-148.95;84.02
38558;BME280;24333;42.626;23.308;2023-05-23T08:31:28;69340.31;;;-148.95;81.42
38558;BME280;24333;42.626;23.308;2023-05-23T08:33:54;69305.03;;;-148.95;84.63
38558;BME280;24333;42.626;23.308;2023-05-23T08:36:19;69276.00;;;-148.95;82.89
38558;BME280;24333;42.626;23.308;2023-05-23T08:38:46;69278.09;;;-148.95;82.04
38558;BME280;24333;42.626;23.308;2023-05-23T08:41:21;69271.84;;;-148.95;81.28
38558;BME280;24333;42.626;23.308;2023-05-23T08:43:47;69292.59;;;-148.95;76.29
38558;BME280;24333;42.626;23.308;2023-05-23T08:46:16;69255.25;;;-148.95;73.36
38558;BME280;24333;42.626;23.308;2023-05-23T08:48:43;69251.13;;;-148.95;78.00
38558;BME280;24333;42.626;23.308;2023-05-23T08:51:13;69230.38;;;-148.95;76.84
38558;BME280;24333;42.626;23.308;2023-05-23T08:53:41;69203.41;;;-148.95;76.67
38558;BME280;24333;42.626;23.308;2023-05-23T08:56:13;69197.19;;;-148.95;49.84
38558;BME280;24333;42.626;23.308;2023-05-23T08:59:01;69161.94;;;-148.95;58.30
38558;BME280;24333;42.626;23.308;2023-05-23T09:01:28;69159.84;;;-148.95;52.55
38558;BME280;24333;42.626;23.308;2023-05-23T09:03:54;69132.91;;;-148.95;51.03
38558;BME280;24333;42.626;23.308;2023-05-23T09:06:20;69114.22;;;-148.95;49.56
38558;BME280;24333;42.626;23.308;2023-05-23T09:08:48;69091.41;;;-148.95;47.13
38558;BME280;24333;42.626;23.308;2023-05-23T09:11:31;69078.97;;;-148.95;54.89
38558;BME280;24333;42.626;23.308;2023-05-23T09:13:58;69056.16;;;-148.95;53.56
38558;BME280;24333;42.626;23.308;2023-05-23T09:16:33;69039.56;;;-148.95;45.01
38558;BME280;24333;42.626;23.308;2023-05-23T10:02:01;68736.78;;;-148.95;37.26
38558;BME280;24333;42.626;23.308;2023-05-23T10:04:30;68653.84;;;-148.95;38.56
38558;BME280;24333;42.626;23.308;2023-05-23T10:06:59;68597.84;;;-148.95;38.25
38558;BME280;24333;42.626;23.308;2023-05-23T10:09:27;68566.75;;;-148.95;37.91
38558;BME280;24333;42.626;23.308;2023-05-23T10:15:25;68616.50;;;-148.95;33.76
38558;BME280;24333;42.626;23.308;2023-05-23T10:18:20;68616.50;;;-148.95;37.54
38558;BME280;24333;42.626;23.308;2023-05-23T10:20:51;68531.50;;;-148.95;36.45
38558;BME280;24333;42.626;23.308;2023-05-23T10:23:18;68471.34;;;-148.95;34.43
38558;BME280;24333;42.626;23.308;2023-05-23T10:25:44;68419.53;;;-148.95;34.50
38558;BME280;24333;42.626;23.308;2023-05-23T10:28:10;68394.63;;;-148.95;33.85
38558;BME280;24333;42.626;23.308;2023-05-23T10:30:38;68355.25;;;-148.95;34.53
38558;BME280;24333;42.626;23.308;2023-05-23T10:33:04;68394.63;;;-148.95;32.02
38558;BME280;24333;42.626;23.308;2023-05-23T10:38:51;68313.78;;;-148.95;32.35
38558;BME280;24333;42.626;23.308;2023-05-23T10:41:50;68261.94;;;-148.95;33.21
38558;BME280;24333;42.626;23.308;2023-05-23T10:49:20;68268.16;;;-148.95;30.77
38558;BME280;24333;42.626;23.308;2023-05-23T10:51:49;68266.09;;;-148.95;33.39
38558;BME280;24333;42.626;23.308;2023-05-23T10:54:18;68259.84;;;-148.95;33.51
38558;BME280;24333;42.626;23.308;2023-05-23T10:56:44;68179.00;;;-148.95;32.45
38558;BME280;24333;42.626;23.308;2023-05-23T10:59:18;68199.72;;;-148.95;29.05
38558;BME280;24333;42.626;23.308;2023-05-23T11:01:45;68193.50;;;-148.95;29.64
38558;BME280;24333;42.626;23.308;2023-05-23T11:04:10;68214.25;;;-148.95;31.23
38558;BME280;24333;42.626;23.308;2023-05-23T11:06:39;68081.53;;;-148.95;32.57
38558;BME280;24333;42.626;23.308;2023-05-23T11:09:15;68160.34;;;-148.95;29.99
38558;BME280;24333;42.626;23.308;2023-05-23T11:12:02;68193.50;;;-148.95;29.16
38558;BME280;24333;42.626;23.308;2023-05-23T11:14:52;68284.75;;;-148.95;28.88
38558;BME280;24333;42.626;23.308;2023-05-23T11:17:30;68297.19;;;-148.95;29.11
38558;BME280;24333;42.626;23.308;2023-05-23T11:20:08;68299.25;;;-148.95;30.89
38558;BME280;24333;42.626;23.308;2023-05-23T11:22:34;68407.06;;;-148.95;30.38
38558;BME280;24333;42.626;23.308;2023-05-23T11:25:01;68251.56;;;-148.95;36.45
38558;BME280;24333;42.626;23.308;2023-05-23T11:27:32;68162.41;;;-148.95;30.85
38558;BME280;24333;42.626;23.308;2023-05-23T11:32:35;68201.81;;;-148.95;30.66
38558;BME280;24333;42.626;23.308;2023-05-23T11:35:03;68415.38;;;-148.95;32.02
38558;BME280;24333;42.626;23.308;2023-05-23T11:37:30;68500.38;;;-148.95;32.62
38558;BME280;24333;42.626;23.308;2023-05-23T11:40:45;68502.47;;;-148.95;33.46
38558;BME280;24333;42.626;23.308;2023-05-23T11:43:18;68519.06;;;-148.95;33.70
38558;BME280;24333;42.626;23.308;2023-05-23T11:45:44;68556.38;;;-148.95;34.87
38558;BME280;24333;42.626;23.308;2023-05-23T11:48:15;68579.19;;;-148.95;34.01
38558;BME280;24333;42.626;23.308;2023-05-23T11:50:52;68628.97;;;-148.95;34.87
38558;BME280;24333;42.626;23.308;2023-05-23T11:53:19;68728.50;;;-148.95;34.79
38558;BME280;24333;42.626;23.308;2023-05-23T11:55:49;68713.97;;;-148.95;35.67
38558;BME280;24333;42.626;23.308;2023-05-23T11:58:34;68680.78;;;-148.95;39.94
38558;BME280;24333;42.626;23.308;2023-05-23T12:03:27;68701.53;;;-148.95;35.42
38558;BME280;24333;42.626;23.308;2023-05-23T12:05:57;68713.97;;;-148.95;35.80
38558;BME280;24333;42.626;23.308;2023-05-23T12:12:09;68713.97;;;-148.95;39.38
38558;BME280;24333;42.626;23.308;2023-05-23T12:14:40;68743.00;;;-148.95;40.70
38558;BME280;24333;42.626;23.308;2023-05-23T12:17:24;68755.44;;;-148.95;34.21
38558;BME280;24333;42.626;23.308;2023-05-23T12:19:51;68803.16;;;-148.95;33.44
38558;BME280;24333;42.626;23.308;2023-05-23T12:22:22;68799.00;;;-148.95;35.10
38558;BME280;24333;42.626;23.308;2023-05-23T13:16:00;68726.41;;;-148.95;37.07
38558;BME280;24333;42.626;23.308;2023-05-23T13:18:26;68701.53;;;-148.95;41.14
38558;BME280;24333;42.626;23.308;2023-05-23T13:20:51;68695.31;;;-148.95;36.46
38558;BME280;24333;42.626;23.308;2023-05-23T13:23:16;68676.66;;;-148.95;34.13
38558;BME280;24333;42.626;23.308;2023-05-23T13:50:13;68786.56;;;-148.95;35.56
38558;BME280;24333;42.626;23.308;2023-05-23T13:52:39;68769.97;;;-148.95;37.57
38558;BME280;24333;42.626;23.308;2023-05-23T13:55:05;68757.53;;;-148.95;33.75
38558;BME280;24333;42.626;23.308;2023-05-23T14:00:07;68730.56;;;-148.95;32.83
38558;BME280;24333;42.626;23.308;2023-05-23T14:02:33;68761.69;;;-148.95;33.62
38558;BME280;24333;42.626;23.308;2023-05-23T14:07:51;68774.13;;;-148.95;33.46
38558;BME280;24333;42.626;23.308;2023-05-23T14:10:17;68751.31;;;-148.95;32.61
38558;BME280;24333;42.626;23.308;2023-05-23T14:12:42;68709.84;;;-148.95;34.20
38558;BME280;24333;42.626;23.308;2023-05-23T14:15:08;68740.94;;;-148.95;31.29
38558;BME280;24333;42.626;23.308;2023-05-23T14:17:34;68755.44;;;-148.95;31.78
38558;BME280;24333;42.626;23.308;2023-05-23T14:20:00;68740.94;;;-148.95;31.91
38558;BME280;24333;42.626;23.308;2023-05-23T14:22:25;68726.41;;;-148.95;31.84
38558;BME280;24333;42.626;23.308;2023-05-23T14:24:51;68728.50;;;-148.95;30.00
38558;BME280;24333;42.626;23.308;2023-05-23T14:27:16;68718.13;;;-148.95;31.83
38558;BME280;24333;42.626;23.308;2023-05-23T14:29:42;68720.19;;;-148.95;31.98
38558;BME280;24333;42.626;23.308;2023-05-23T14:32:11;68728.50;;;-148.95;31.78
38558;BME280;24333;42.626;23.308;2023-05-23T14:34:36;68713.97;;;-148.95;33.64
38558;BME280;24333;42.626;23.308;2023-05-23T14:37:02;68724.34;;;-148.95;33.31
38558;BME280;24333;42.626;23.308;2023-05-23T14:39:27;68734.72;;;-148.95;32.72
38558;BME280;24333;42.626;23.308;2023-05-23T14:41:54;68745.09;;;-148.95;33.11
38558;BME280;24333;42.626;23.308;2023-05-23T14:44:19;68753.38;;;-148.95;32.36
38558;BME280;24333;42.626;23.308;2023-05-23T14:46:45;68757.53;;;-148.95;32.60
38558;BME280;24333;42.626;23.308;2023-05-23T14:49:17;68796.94;;;-148.95;31.86
38558;BME280;24333;42.626;23.308;2023-05-23T14:51:44;68786.56;;;-148.95;32.56
38558;BME280;24333;42.626;23.308;2023-05-23T14:54:11;68794.84;;;-148.95;31.85
38558;BME280;24333;42.626;23.308;2023-05-23T15:04:38;68759.59;;;-148.95;31.31
38558;BME280;24333;42.626;23.308;2023-05-23T15:56:30;68467.22;;;-148.95;28.98
38558;BME280;24333;42.626;23.308;2023-05-23T15:58:56;68514.91;;;-148.95;28.62
38558;BME280;24333;42.626;23.308;2023-05-23T16:01:21;68535.63;;;-148.95;28.52
38558;BME280;24333;42.626;23.308;2023-05-23T16:03:47;68533.56;;;-148.95;29.70
38558;BME280;24333;42.626;23.308;2023-05-23T16:06:13;68543.94;;;-148.95;29.18
38558;BME280;24333;42.626;23.308;2023-05-23T16:08:38;68533.56;;;-148.95;28.98
38558;BME280;24333;42.626;23.308;2023-05-23T16:11:07;68458.91;;;-148.95;32.45
38558;BME280;24333;42.626;23.308;2023-05-23T16:13:33;68467.22;;;-148.95;29.20
38558;BME280;24333;42.626;23.308;2023-05-23T16:15:58;68475.50;;;-148.95;30.75
38558;BME280;24333;42.626;23.308;2023-05-23T16:18:23;68479.66;;;-148.95;31.26
38558;BME280;24333;42.626;23.308;2023-05-23T16:20:55;68481.72;;;-148.95;30.07
38558;BME280;24333;42.626;23.308;2023-05-23T16:23:39;68523.19;;;-148.95;30.80
38558;BME280;24333;42.626;23.308;2023-05-23T16:26:05;68581.25;;;-148.95;30.44
38558;BME280;24333;42.626;23.308;2023-05-23T16:28:32;68647.63;;;-148.95;30.22
38558;BME280;24333;42.626;23.308;2023-05-23T16:30:59;68726.41;;;-148.95;29.60
38558;BME280;24333;42.626;23.308;2023-05-23T16:33:24;68728.50;;;-148.95;31.07
38558;BME280;24333;42.626;23.308;2023-05-23T16:35:49;68743.00;;;-148.95;31.30
38558;BME280;24333;42.626;23.308;2023-05-23T16:38:15;68755.44;;;-148.95;33.46
38558;BME280;24333;42.626;23.308;2023-05-23T16:40:42;68765.81;;;-148.95;33.35
38558;BME280;24333;42.626;23.308;2023-05-23T16:43:08;68765.81;;;-148.95;35.67
38558;BME280;24333;42.626;23.308;2023-05-23T16:45:33;68786.56;;;-148.95;36.06
38558;BME280;24333;42.626;23.308;2023-05-23T16:47:59;68799.00;;;-148.95;39.40
38558;BME280;24333;42.626;23.308;2023-05-23T16:50:25;68823.88;;;-148.95;36.76
38558;BME280;24333;42.626;23.308;2023-05-23T16:52:51;68840.47;;;-148.95;40.35
38558;BME280;24333;42.626;23.308;2023-05-23T17:31:28;69201.34;;;-148.95;42.91
38558;BME280;24333;42.626;23.308;2023-05-23T17:33:54;69215.84;;;-148.95;43.54
38558;BME280;24333;42.626;23.308;2023-05-23T17:36:19;69217.94;;;-148.95;42.36
38558;BME280;24333;42.626;23.308;2023-05-23T17:38:45;69232.44;;;-148.95;42.44
38558;BME280;24333;42.626;23.308;2023-05-23T17:41:10;69234.53;;;-148.95;42.50
38558;BME280;24333;42.626;23.308;2023-05-23T17:43:35;69238.69;;;-148.95;43.32
38558;BME280;24333;42.626;23.308;2023-05-23T17:46:01;69253.19;;;-148.95;44.27
38558;BME280;24333;42.626;23.308;2023-05-23T17:48:26;69265.63;;;-148.95;44.49
38558;BME280;24333;42.626;23.308;2023-05-23T17:50:51;69276.00;;;-148.95;45.82
38558;BME280;24333;42.626;23.308;2023-05-23T17:53:17;69286.38;;;-148.95;48.25
38558;BME280;24333;42.626;23.308;2023-05-23T17:55:42;69300.91;;;-148.95;49.59
38558;BME280;24333;42.626;23.308;2023-05-23T17:58:08;69309.19;;;-148.95;49.91
38558;BME280;24333;42.626;23.308;2023-05-23T18:00:33;69309.19;;;-148.95;50.74
38558;BME280;24333;42.626;23.308;2023-05-23T18:02:59;69325.78;;;-148.95;51.73
38558;BME280;24333;42.626;23.308;2023-05-23T18:10:36;69346.53;;;-148.95;57.21
38558;BME280;24333;42.626;23.308;2023-05-23T18:13:02;69365.19;;;-148.95;57.55
38558;BME280;24333;42.626;23.308;2023-05-23T18:15:29;69371.41;;;-148.95;56.41
38558;BME280;24333;42.626;23.308;2023-05-23T18:17:54;69375.56;;;-148.95;57.62
38558;BME280;24333;42.626;23.308;2023-05-23T18:24:00;69404.59;;;-148.95;56.00
38558;BME280;24333;42.626;23.308;2023-05-23T18:26:26;69410.81;;;-148.95;55.13
38558;BME280;24333;42.626;23.308;2023-05-23T18:28:52;69423.28;;;-148.95;55.43
38558;BME280;24333;42.626;23.308;2023-05-23T18:31:18;69427.41;;;-148.95;56.97
38558;BME280;24333;42.626;23.308;2023-05-23T18:33:44;69433.63;;;-148.95;56.08
38558;BME280;24333;42.626;23.308;2023-05-23T18:36:10;69435.72;;;-148.95;55.33
38558;BME280;24333;42.626;23.308;2023-05-23T19:15:22;69549.78;;;-148.95;50.59
38558;BME280;24333;42.626;23.308;2023-05-23T19:17:48;69549.78;;;-148.95;50.72
38558;BME280;24333;42.626;23.308;2023-05-23T19:20:13;69556.03;;;-148.95;50.93
38558;BME280;24333;42.626;23.308;2023-05-23T19:22:43;69562.25;;;-148.95;52.76